CST,Max TemperatureF,Mean TemperatureF,Min TemperatureF,Max Dew PointF,MeanDew PointF,Min DewpointF,Max Humidity, Mean Humidity, Min Humidity, Max Sea Level PressureIn, Mean Sea Level PressureIn, Min Sea Level PressureIn, Max VisibilityMiles, Mean VisibilityMiles, Min VisibilityMiles, Max Wind SpeedMPH, Mean Wind SpeedMPH, Max Gust SpeedMPH,PrecipitationIn, CloudCover, Events, WindDirDegrees
2012-2-1,62,55,48,57,52,43,100,88,63,30.11,30.07,30.03,10,6,0,10,3,,0.01,7,Fog-Rain,238
2012-2-2,64,50,35,43,36,32,93,63,32,30.32,30.26,30.18,10,9,3,9,4,,0.00,0,,50
2012-2-3,53,48,42,46,39,32,87,70,54,30.32,30.26,30.16,10,8,2,12,5,,0.30,4,Rain,73
2012-2-4,57,54,51,55,52,48,94,89,77,30.10,30.04,30.00,10,7,0,12,5,,0.25,7,Fog-Rain-Thunderstorm,190
2012-2-5,50,46,42,43,42,39,87,82,76,30.27,30.19,30.10,10,9,4,10,5,,0.00,8,,323
2012-2-6,51,42,32,36,33,30,93,73,50,30.31,30.26,30.21,10,8,4,10,3,,0.00,0,,285
2012-2-7,53,42,30,41,33,28,93,70,44,30.28,30.25,30.23,10,8,0,10,2,,0.00,3,Fog-Rain,288
2012-2-8,44,40,37,37,32,30,87,77,70,30.41,30.37,30.30,10,8,5,13,8,17,0.00,8,,340
2012-2-9,37,35,33,30,27,25,75,68,60,30.41,30.34,30.25,10,10,10,5,2,,0.00,8,,237
2012-2-10,39,36,33,36,32,28,93,80,70,30.21,30.11,30.02,10,8,3,26,7,32,0.00,8,Snow,205
2012-2-11,32,28,23,19,12,5,80,53,32,30.53,30.43,30.21,10,10,3,24,16,32,0.00,3,Snow,327
2012-2-12,39,30,21,9,6,3,58,40,24,30.57,30.52,30.41,10,10,10,13,7,,0.00,0,,295
2012-2-13,37,29,21,28,20,16,87,68,44,30.33,30.20,30.00,10,9,1,14,3,18,0.01,6,Rain-Snow,166
2012-2-14,44,38,33,37,33,32,93,84,66,30.05,29.97,29.89,10,8,2,9,5,,0.01,8,,213
2012-2-15,50,44,37,45,39,32,87,83,76,30.15,30.09,29.97,10,9,3,10,4,,0.04,7,Rain,138
2012-2-16,55,50,46,46,44,37,93,80,62,30.22,30.12,29.97,10,8,0,13,5,18,0.01,6,Fog,314
2012-2-17,53,42,30,43,33,28,93,76,44,30.27,30.21,30.13,10,5,0,7,1,,0.00,2,Fog-Snow,116
2012-2-18,48,42,37,39,34,30,93,74,54,30.14,30.09,30.04,10,8,4,13,4,16,0.00,6,,16
2012-2-19,48,42,35,30,27,23,70,58,37,30.16,30.06,30.00,10,10,10,16,10,23,0.00,3,,5
2012-2-20,53,40,26,28,24,21,86,59,28,30.28,30.20,30.04,10,10,10,14,4,16,0.00,0,,118
2012-2-21,57,50,44,41,37,28,76,60,43,30.00,29.91,29.79,10,10,5,23,15,33,0.03,4,,208
2012-2-22,64,52,41,52,41,32,77,65,48,29.87,29.68,29.51,10,10,3,15,6,18,0.00,1,,201
2012-2-23,73,58,44,57,50,43,100,75,43,29.54,29.40,29.26,10,6,0,24,7,33,0.00,5,Fog,157
2012-2-24,57,50,42,41,29,23,62,48,37,30.11,29.87,29.54,10,10,10,25,14,36,0.00,6,,283
2012-2-25,46,40,33,23,19,12,65,43,25,30.35,30.28,30.18,10,10,10,17,8,25,0.00,1,,287
2012-2-26,62,46,30,27,22,18,69,41,22,30.32,30.25,30.13,10,10,10,18,9,25,0.00,0,,153
2012-2-27,62,50,37,37,30,25,81,45,25,30.40,30.34,30.23,10,10,10,16,5,18,0.00,2,,342
2012-2-28,69,53,37,52,36,25,65,51,34,30.38,30.21,29.93,10,10,10,15,7,18,0.00,5,Thunderstorm,102
2012-2-29,69,63,57,63,48,28,88,58,26,29.83,29.79,29.72,10,10,2,29,15,44,0.33,5,Rain-Thunderstorm,226